Vinita Park, Missouri
Current Conditions -  °F | °C
As of 2:51 AM on Saturday 22 Nov 2014 (Local Time) from KSTL Reporting Station
Broken Clouds Broken Clouds  
Wind Chill: 44°   Ceiling: 4900
Heat Index: 44°   Visibility: 9mi
Dew Point: 36°   Wind: 3mph
Humidity: 73%   Direction: 170°S
Pressure: 30.16"   Gusts: NA
Location:  38.702°N, 90.3628°W
Report Text: KSTL 220851Z 17003KT 9SM BKN049 BKN075 07/02 A3016 RMK AO2 SLP218 T00670022 58010
Loading
Personal Weather Stations






























Interactive Weather Map New forecast layout! Learn more

10-Day Weather Forecast

Advertisements
Track Severe Weather on mobile